Time;durP1;ratioP1;P1;durP2;ratioP2;P2;SDS_P1;SDS_P2;PMS_P1;PMS_P2;Temp;Humidity;BMP_temperature;BMP_pressure;BME280_temperature;BME280_humidity;BME280_pressure;Samples;Min_cycle;Max_cycle;Signal;HPM_P1;HPM_P2
2021/06/16 00:02:23;;;;;;;1.80;1.13;;;20.60;55.90;;;;;;5031497;28;20029;-79
2021/06/16 00:04:49;;;;;;;2.70;1.30;;;20.60;56.00;;;;;;5030763;28;20366;-77
2021/06/16 00:07:15;;;;;;;3.83;1.35;;;20.60;56.10;;;;;;5031330;28;20025;-78
2021/06/16 00:09:41;;;;;;;3.67;1.63;;;20.50;56.20;;;;;;5030722;28;20028;-78
2021/06/16 00:12:08;;;;;;;4.25;1.10;;;20.50;56.30;;;;;;5032319;28;20105;-78
2021/06/16 00:14:35;;;;;;;6.18;1.40;;;20.50;56.40;;;;;;5032052;28;20056;-78
2021/06/16 00:17:00;;;;;;;2.28;1.20;;;20.40;56.40;;;;;;5032151;28;20030;-78
2021/06/16 00:19:26;;;;;;;5.95;1.55;;;20.40;56.40;;;;;;5031158;28;20520;-79
2021/06/16 00:21:52;;;;;;;3.30;1.40;;;20.40;57.10;;;;;;5030593;28;20028;-78
2021/06/16 00:24:20;;;;;;;3.15;1.10;;;20.40;56.60;;;;;;5031158;28;20067;-78
2021/06/16 00:26:47;;;;;;;4.68;1.40;;;20.40;56.60;;;;;;5031961;28;20033;-79
2021/06/16 00:29:14;;;;;;;3.88;1.45;;;20.30;56.70;;;;;;5032461;28;20022;-79
2021/06/16 00:31:40;;;;;;;3.72;1.30;;;20.40;56.80;;;;;;5046913;28;20029;-78
2021/06/16 00:34:05;;;;;;;2.13;1.20;;;20.30;56.80;;;;;;5030964;28;20029;-79
2021/06/16 00:36:31;;;;;;;3.95;1.17;;;20.30;56.90;;;;;;5031558;28;20075;-78
2021/06/16 00:38:58;;;;;;;3.13;1.30;;;20.30;57.00;;;;;;5032136;28;20129;-79
2021/06/16 00:41:24;;;;;;;2.42;1.02;;;20.30;57.00;;;;;;5030858;28;20466;-79
2021/06/16 00:43:50;;;;;;;3.45;1.40;;;20.20;57.00;;;;;;5030215;28;20033;-78
2021/06/16 00:46:16;;;;;;;5.28;1.50;;;20.20;57.00;;;;;;5031597;28;20029;-77
2021/06/16 00:48:42;;;;;;;4.95;1.23;;;20.20;57.00;;;;;;5030032;28;20026;-77
2021/06/16 00:51:07;;;;;;;5.07;1.85;;;20.20;57.00;;;;;;5030730;28;20017;-78
2021/06/16 00:53:33;;;;;;;4.20;1.55;;;20.10;57.20;;;;;;5029731;28;20021;-77
2021/06/16 00:55:59;;;;;;;3.90;1.30;;;20.10;57.20;;;;;;5030873;28;20029;-78
2021/06/16 00:58:25;;;;;;;3.40;1.80;;;20.10;57.30;;;;;;5031872;28;20087;-78
2021/06/16 01:01:19;;;;;;;6.15;1.25;;;20.10;57.30;;;;;;5029518;28;20533;-78
2021/06/16 01:04:02;;;;;;;2.05;1.38;;;20.10;57.40;;;;;;5029932;28;20108;-79
2021/06/16 01:06:35;;;;;;;4.53;1.67;;;20.00;58.00;;;;;;5032141;28;20026;-78
2021/06/16 01:09:04;;;;;;;3.85;1.08;;;20.00;57.40;;;;;;5031877;28;20381;-79
2021/06/16 01:11:36;;;;;;;6.60;1.40;;;20.00;57.50;;;;;;5030526;28;20033;-78
2021/06/16 01:14:25;;;;;;;4.72;1.42;;;19.90;57.50;;;;;;5032022;28;20022;-78
2021/06/16 01:16:55;;;;;;;4.57;1.50;;;19.90;58.20;;;;;;5029741;28;20492;-78
2021/06/16 01:19:44;;;;;;;4.97;1.38;;;19.90;57.70;;;;;;5030544;28;20428;-78
2021/06/16 01:22:23;;;;;;;3.70;1.55;;;19.80;57.80;;;;;;5032033;28;20021;-79
2021/06/16 01:24:52;;;;;;;2.65;1.45;;;19.70;58.00;;;;;;5029755;28;20029;-78
2021/06/16 01:27:19;;;;;;;4.68;1.70;;;19.70;58.00;;;;;;5030290;28;20022;-80
2021/06/16 01:29:46;;;;;;;4.03;1.35;;;19.70;57.90;;;;;;5030059;28;20037;-79
2021/06/16 01:32:12;;;;;;;3.70;1.35;;;19.70;57.80;;;;;;5030273;28;20048;-77
2021/06/16 01:34:37;;;;;;;4.18;1.52;;;19.70;57.90;;;;;;5029827;28;20450;-79
2021/06/16 01:37:04;;;;;;;1.70;1.10;;;19.70;57.90;;;;;;5030316;28;20525;-78
2021/06/16 01:39:34;;;;;;;5.18;1.40;;;19.70;57.90;;;;;;5030368;28;20018;-77
2021/06/16 01:42:07;;;;;;;1.80;1.25;;;19.70;57.90;;;;;;5031675;28;20096;-78
2021/06/16 01:44:34;;;;;;;2.72;1.30;;;19.70;58.50;;;;;;5031640;28;20104;-78
2021/06/16 01:47:01;;;;;;;2.80;1.17;;;19.70;58.00;;;;;;5030297;28;20049;-77
2021/06/16 01:49:28;;;;;;;2.72;1.42;;;19.60;58.10;;;;;;5030090;28;20466;-77
2021/06/16 01:51:56;;;;;;;3.30;1.20;;;19.60;58.20;;;;;;5029549;28;20025;-78
2021/06/16 01:54:24;;;;;;;2.00;1.02;;;19.60;58.20;;;;;;5030231;28;20026;-80
2021/06/16 01:56:51;;;;;;;1.80;0.90;;;19.60;58.20;;;;;;5030791;28;20041;-77
2021/06/16 01:59:19;;;;;;;1.70;1.23;;;19.60;58.20;;;;;;5034955;28;20033;-79
2021/06/16 02:01:49;;;;;;;4.63;1.42;;;19.60;58.20;;;;;;5033065;28;20330;-78
2021/06/16 02:04:16;;;;;;;2.22;1.33;;;19.60;58.20;;;;;;5033638;28;20075;-78
2021/06/16 02:06:46;;;;;;;5.13;1.55;;;19.60;58.10;;;;;;5032914;28;20021;-78
2021/06/16 02:09:14;;;;;;;3.50;1.30;;;19.60;58.10;;;;;;5033667;28;20028;-78
2021/06/16 02:11:41;;;;;;;5.15;1.40;;;19.50;58.20;;;;;;5033861;28;20378;-78
2021/06/16 02:14:11;;;;;;;3.63;1.15;;;19.50;58.30;;;;;;5033572;28;20040;-78
2021/06/16 02:16:42;;;;;;;4.95;1.48;;;19.50;58.50;;;;;;5032820;28;20470;-79
2021/06/16 02:19:12;;;;;;;4.00;1.45;;;19.50;58.50;;;;;;5033704;28;20299;-79
2021/06/16 02:21:39;;;;;;;4.40;1.20;;;19.50;58.50;;;;;;5032952;28;20026;-77
2021/06/16 02:24:06;;;;;;;6.47;1.30;;;19.50;58.50;;;;;;5033334;28;20029;-78
2021/06/16 02:26:32;;;;;;;2.47;1.20;;;19.50;58.60;;;;;;5033590;28;20222;-77
2021/06/16 02:28:58;;;;;;;4.70;1.50;;;19.40;58.60;;;;;;5039350;28;20473;-78
2021/06/16 02:31:23;;;;;;;6.20;1.63;;;19.40;58.70;;;;;;5043565;28;20454;-79
2021/06/16 02:33:51;;;;;;;4.80;1.58;;;19.40;58.70;;;;;;5043265;28;20032;-78
2021/06/16 02:36:19;;;;;;;2.30;1.38;;;19.40;58.80;;;;;;5042182;28;20377;-78
2021/06/16 02:38:46;;;;;;;3.00;1.20;;;19.30;58.80;;;;;;5037699;28;20052;-78
2021/06/16 02:41:14;;;;;;;4.75;1.60;;;19.30;58.90;;;;;;5035074;28;20075;-76
2021/06/16 02:43:40;;;;;;;3.33;1.60;;;19.30;59.00;;;;;;5034218;28;20025;-78
2021/06/16 02:46:10;;;;;;;3.53;1.40;;;19.30;59.00;;;;;;5034454;28;20060;-79
2021/06/16 02:48:40;;;;;;;4.55;1.75;;;19.30;59.10;;;;;;5034699;28;20022;-80
2021/06/16 02:51:06;;;;;;;3.00;1.20;;;19.30;59.20;;;;;;5033339;28;20030;-77
2021/06/16 02:53:34;;;;;;;4.43;1.77;;;19.20;59.20;;;;;;5033062;28;20049;-78
2021/06/16 02:56:03;;;;;;;4.50;1.55;;;19.20;59.20;;;;;;5032366;28;20501;-79
2021/06/16 02:58:33;;;;;;;3.08;1.45;;;19.20;59.30;;;;;;5032721;28;20386;-79
2021/06/16 03:01:04;;;;;;;1.60;1.38;;;19.20;59.40;;;;;;5033428;28;20255;-79
2021/06/16 03:03:30;;;;;;;4.13;1.70;;;19.20;59.50;;;;;;5032572;28;20047;-77
2021/06/16 03:05:59;;;;;;;4.88;1.70;;;19.20;59.50;;;;;;5031710;28;20033;-78
2021/06/16 03:08:27;;;;;;;4.03;1.83;;;19.10;59.50;;;;;;5033848;28;20030;-79
2021/06/16 03:10:53;;;;;;;2.50;1.35;;;19.10;59.60;;;;;;5031326;28;20501;-78
2021/06/16 03:13:19;;;;;;;3.83;1.63;;;19.10;59.60;;;;;;5033659;28;20075;-78
2021/06/16 03:15:46;;;;;;;4.07;1.63;;;19.10;59.70;;;;;;5032798;28;20407;-78
2021/06/16 03:18:15;;;;;;;5.18;1.48;;;19.00;59.70;;;;;;5032221;28;20103;-79
2021/06/16 03:20:42;;;;;;;2.95;1.58;;;19.00;59.80;;;;;;5031948;28;20361;-78
2021/06/16 03:23:09;;;;;;;3.35;1.50;;;19.00;59.80;;;;;;5032288;28;20511;-78
2021/06/16 03:25:36;;;;;;;6.10;1.73;;;19.00;60.00;;;;;;5032220;28;20048;-78
2021/06/16 03:28:04;;;;;;;5.57;1.75;;;19.00;60.00;;;;;;5031329;28;20036;-79
2021/06/16 03:30:31;;;;;;;4.05;1.90;;;18.90;60.00;;;;;;5031901;28;20031;-78
2021/06/16 03:32:58;;;;;;;3.83;1.73;;;19.00;60.30;;;;;;5031260;28;20060;-77
2021/06/16 03:35:24;;;;;;;4.72;1.73;;;19.00;60.40;;;;;;5031990;28;20026;-78
2021/06/16 03:37:52;;;;;;;3.00;1.50;;;19.00;60.30;;;;;;5031385;28;20034;-78
2021/06/16 03:40:19;;;;;;;3.00;1.58;;;19.00;60.30;;;;;;5033227;28;20022;-78
2021/06/16 03:42:48;;;;;;;2.75;1.60;;;19.00;60.50;;;;;;5030864;28;20514;-78
2021/06/16 03:45:14;;;;;;;3.22;1.58;;;18.90;60.50;;;;;;5031143;28;20045;-78
2021/06/16 03:47:44;;;;;;;4.03;1.60;;;18.90;60.60;;;;;;5032910;28;20118;-78
2021/06/16 03:50:13;;;;;;;4.10;1.70;;;18.90;60.80;;;;;;5033001;28;20486;-79
2021/06/16 03:52:39;;;;;;;4.28;1.63;;;18.90;60.70;;;;;;5031605;28;20025;-79
2021/06/16 03:55:06;;;;;;;4.38;1.83;;;18.90;60.80;;;;;;5030905;28;20033;-78
2021/06/16 03:57:33;;;;;;;5.15;1.80;;;18.90;60.90;;;;;;5031465;28;20028;-78
2021/06/16 04:00:00;;;;;;;4.47;1.63;;;18.90;60.90;;;;;;5030853;28;20033;-79
2021/06/16 04:02:26;;;;;;;8.80;2.15;;;18.90;61.00;;;;;;5031523;28;20030;-79
2021/06/16 04:04:52;;;;;;;1.98;1.50;;;18.90;60.90;;;;;;5031937;28;20021;-79
2021/06/16 04:07:20;;;;;;;4.28;2.10;;;18.90;60.90;;;;;;5031581;28;20083;-79
2021/06/16 04:09:54;;;;;;;3.05;1.50;;;18.90;61.00;;;;;;5032082;28;20030;-77
2021/06/16 04:12:20;;;;;;;3.42;1.77;;;18.90;61.10;;;;;;5031201;28;20013;-78
2021/06/16 04:14:48;;;;;;;4.03;1.75;;;18.90;61.10;;;;;;5030277;28;20025;-77
2021/06/16 04:17:19;;;;;;;7.55;2.65;;;18.90;61.00;;;;;;5032580;28;20188;-78
2021/06/16 04:19:45;;;;;;;5.35;2.05;;;18.90;61.10;;;;;;5032266;28;20029;-77
2021/06/16 04:22:11;;;;;;;4.25;2.00;;;18.90;61.10;;;;;;5031630;28;20026;-78
2021/06/16 04:24:37;;;;;;;3.45;1.70;;;18.90;61.20;;;;;;5031044;28;20037;-78
2021/06/16 04:27:04;;;;;;;7.75;2.40;;;18.90;61.30;;;;;;5030550;28;20037;-76
2021/06/16 04:29:29;;;;;;;4.28;2.00;;;18.90;61.30;;;;;;5031015;28;20104;-77
2021/06/16 04:31:55;;;;;;;4.80;2.10;;;18.90;61.40;;;;;;5031907;28;20460;-79
2021/06/16 04:34:21;;;;;;;3.50;2.30;;;18.90;61.50;;;;;;5032047;28;20057;-79
2021/06/16 04:36:48;;;;;;;3.67;1.70;;;18.90;61.60;;;;;;5042238;28;20061;-78
2021/06/16 04:39:14;;;;;;;3.10;1.60;;;18.90;61.60;;;;;;5042315;28;20075;-78
2021/06/16 04:41:40;;;;;;;6.93;1.95;;;19.00;61.60;;;;;;5049606;28;20027;-79
2021/06/16 04:44:06;;;;;;;3.38;1.65;;;19.00;61.60;;;;;;5049882;28;20017;-78
2021/06/16 04:46:31;;;;;;;4.82;2.40;;;19.00;61.60;;;;;;5052206;28;20453;-79
2021/06/16 04:48:57;;;;;;;3.53;1.63;;;19.00;61.70;;;;;;5050205;28;20031;-78
2021/06/16 04:51:23;;;;;;;4.80;2.10;;;19.00;61.70;;;;;;5050902;28;20434;-78
2021/06/16 04:53:48;;;;;;;4.78;2.15;;;19.10;61.90;;;;;;5051319;28;20029;-79
2021/06/16 04:56:14;;;;;;;5.38;2.40;;;19.00;61.90;;;;;;5051886;28;20029;-79
2021/06/16 04:58:40;;;;;;;3.47;2.25;;;19.00;61.90;;;;;;5052032;28;20090;-80
2021/06/16 05:01:05;;;;;;;4.57;2.40;;;19.00;62.00;;;;;;5043360;28;20028;-79
2021/06/16 05:03:31;;;;;;;3.35;2.13;;;19.00;62.10;;;;;;5031483;28;20022;-78
2021/06/16 05:05:57;;;;;;;7.30;2.30;;;19.00;62.20;;;;;;5031784;28;20077;-79
2021/06/16 05:08:22;;;;;;;3.95;2.17;;;19.10;62.20;;;;;;5030831;28;20029;-79
2021/06/16 05:10:48;;;;;;;4.20;2.00;;;19.10;62.10;;;;;;5030601;28;20017;-80
2021/06/16 05:13:23;;;;;;;6.47;2.50;;;19.10;62.20;;;;;;5030196;28;20025;-80
2021/06/16 05:15:50;;;;;;;4.57;2.58;;;19.10;62.20;;;;;;5030582;28;20022;-78
2021/06/16 05:18:16;;;;;;;7.95;2.00;;;19.10;62.20;;;;;;5031675;28;20164;-78
2021/06/16 05:20:42;;;;;;;4.22;1.83;;;19.10;62.40;;;;;;5030707;28;20113;-77
2021/06/16 05:23:07;;;;;;;5.57;2.55;;;19.20;62.40;;;;;;5031248;28;20026;-78
2021/06/16 05:25:33;;;;;;;6.25;2.30;;;19.20;62.50;;;;;;5026957;28;20393;-76
2021/06/16 05:27:59;;;;;;;4.57;1.83;;;19.30;62.60;;;;;;5027503;28;20029;-76
2021/06/16 05:30:25;;;;;;;4.45;2.30;;;19.30;62.60;;;;;;5027856;28;20058;-76
2021/06/16 05:32:51;;;;;;;4.40;2.22;;;19.40;62.60;;;;;;5030549;28;20338;-78
2021/06/16 05:35:16;;;;;;;4.93;2.17;;;19.40;62.70;;;;;;5031753;28;20030;-76
2021/06/16 05:37:46;;;;;;;5.35;2.00;;;19.40;62.70;;;;;;5031398;28;20034;-78
2021/06/16 05:40:14;;;;;;;7.63;2.17;;;19.50;62.90;;;;;;5031321;28;20083;-78
2021/06/16 05:42:40;;;;;;;4.00;2.53;;;19.50;62.70;;;;;;5032102;28;20036;-78
2021/06/16 05:45:06;;;;;;;4.35;2.40;;;19.50;62.70;;;;;;5034353;28;20046;-77
2021/06/16 05:47:32;;;;;;;5.90;2.38;;;19.50;62.70;;;;;;5050723;28;20028;-77
2021/06/16 05:49:58;;;;;;;4.57;2.45;;;19.60;62.90;;;;;;5053416;28;20029;-77
2021/06/16 05:52:24;;;;;;;4.38;2.00;;;19.60;62.90;;;;;;5053534;28;20017;-77
2021/06/16 05:54:49;;;;;;;5.28;2.30;;;19.70;63.00;;;;;;5054730;28;20017;-77
2021/06/16 05:57:15;;;;;;;6.43;2.67;;;19.70;63.00;;;;;;5054455;28;20095;-78
2021/06/16 05:59:41;;;;;;;5.18;2.38;;;19.70;63.00;;;;;;5054882;28;20025;-78
2021/06/16 06:02:07;;;;;;;4.50;2.72;;;19.70;63.10;;;;;;5054328;28;20029;-76
2021/06/16 06:04:34;;;;;;;4.63;2.58;;;19.80;63.40;;;;;;5054625;28;20074;-77
2021/06/16 06:07:00;;;;;;;8.52;2.80;;;19.80;63.50;;;;;;5054263;28;20029;-77
2021/06/16 06:09:25;;;;;;;8.30;2.90;;;19.80;63.50;;;;;;5054845;28;20075;-77
2021/06/16 06:11:51;;;;;;;5.47;2.65;;;19.90;63.50;;;;;;5054899;28;20017;-77
2021/06/16 06:14:17;;;;;;;3.30;2.50;;;19.90;63.40;;;;;;5053848;28;20029;-76
2021/06/16 06:16:42;;;;;;;4.45;2.40;;;19.90;63.30;;;;;;5054703;28;20025;-77
2021/06/16 06:19:08;;;;;;;5.38;2.45;;;20.00;63.40;;;;;;5054204;28;20025;-78
2021/06/16 06:21:34;;;;;;;5.93;2.20;;;20.00;63.50;;;;;;5054624;28;20048;-77
2021/06/16 06:24:00;;;;;;;4.63;2.40;;;20.10;63.50;;;;;;5053895;28;20028;-77
2021/06/16 06:26:26;;;;;;;5.40;2.60;;;20.10;63.60;;;;;;5054462;28;20114;-77
2021/06/16 06:28:53;;;;;;;6.30;2.53;;;20.10;63.50;;;;;;5054346;28;20072;-76
2021/06/16 06:31:18;;;;;;;4.50;2.55;;;20.20;63.60;;;;;;5053767;28;20036;-77
2021/06/16 06:33:44;;;;;;;4.65;3.00;;;20.20;63.60;;;;;;5052903;28;20388;-76
2021/06/16 06:36:10;;;;;;;4.57;2.83;;;20.20;63.60;;;;;;5052396;28;20028;-78
2021/06/16 06:38:35;;;;;;;6.85;2.85;;;20.30;63.60;;;;;;5052817;28;20025;-77
2021/06/16 06:41:01;;;;;;;6.40;3.38;;;20.30;63.40;;;;;;5052380;28;20460;-78
2021/06/16 06:43:27;;;;;;;4.60;2.80;;;20.30;63.40;;;;;;5052730;28;20382;-76
2021/06/16 06:45:53;;;;;;;5.03;3.22;;;20.30;63.40;;;;;;5051593;28;20060;-78
2021/06/16 06:48:18;;;;;;;7.00;2.83;;;20.40;63.50;;;;;;5052009;28;20031;-77
2021/06/16 06:50:44;;;;;;;6.97;2.78;;;20.40;63.60;;;;;;5054222;28;20100;-77
2021/06/16 06:53:10;;;;;;;5.85;2.72;;;20.50;63.90;;;;;;5053408;28;20028;-78
2021/06/16 06:55:36;;;;;;;3.78;2.38;;;20.50;63.90;;;;;;5052579;28;20036;-77
2021/06/16 06:58:03;;;;;;;5.93;2.67;;;20.50;63.90;;;;;;5051970;28;20175;-77
2021/06/16 07:00:28;;;;;;;6.18;2.85;;;20.50;63.90;;;;;;5052648;28;20029;-77
2021/06/16 07:02:55;;;;;;;6.30;3.17;;;20.60;63.90;;;;;;5053892;28;20105;-77
2021/06/16 07:05:21;;;;;;;7.85;3.58;;;20.60;63.80;;;;;;5052900;28;20457;-77
2021/06/16 07:07:47;;;;;;;6.18;3.25;;;20.70;63.80;;;;;;5053717;28;20040;-77
2021/06/16 07:10:13;;;;;;;4.53;2.45;;;20.70;63.70;;;;;;5053153;28;20029;-76
2021/06/16 07:12:39;;;;;;;5.20;2.63;;;20.80;63.70;;;;;;5052388;28;20029;-76
2021/06/16 07:15:06;;;;;;;4.20;2.63;;;20.90;63.70;;;;;;5051815;28;20362;-78
2021/06/16 07:17:33;;;;;;;6.90;2.97;;;20.90;63.50;;;;;;5052243;28;20108;-78
2021/06/16 07:19:59;;;;;;;7.55;3.20;;;21.00;64.30;;;;;;5051634;28;20026;-78
2021/06/16 07:22:25;;;;;;;5.88;3.08;;;21.00;63.40;;;;;;5052376;28;20112;-77
2021/06/16 07:24:50;;;;;;;5.57;2.83;;;21.10;63.10;;;;;;5053437;28;20021;-77
2021/06/16 07:27:16;;;;;;;5.95;3.17;;;21.10;62.90;;;;;;5051136;28;20029;-78
2021/06/16 07:29:42;;;;;;;6.80;2.70;;;21.20;62.80;;;;;;5052037;28;20017;-78
2021/06/16 07:32:08;;;;;;;4.45;2.75;;;21.30;62.60;;;;;;5052793;28;20029;-78
2021/06/16 07:34:34;;;;;;;5.55;2.72;;;21.30;62.30;;;;;;5053485;28;20029;-76
2021/06/16 07:37:00;;;;;;;3.53;2.35;;;21.40;62.00;;;;;;5051750;28;20021;-77
2021/06/16 07:39:26;;;;;;;6.43;2.60;;;21.50;61.90;;;;;;5053305;28;20025;-77
2021/06/16 07:41:52;;;;;;;6.20;2.58;;;21.50;61.70;;;;;;5052700;28;20113;-77
2021/06/16 07:44:18;;;;;;;6.18;2.45;;;21.50;61.50;;;;;;5052209;28;20025;-78
2021/06/16 07:46:44;;;;;;;4.75;2.55;;;21.60;61.90;;;;;;5052043;28;20029;-78
2021/06/16 07:49:09;;;;;;;2.88;2.00;;;21.70;61.00;;;;;;5050915;28;20470;-78
2021/06/16 07:51:35;;;;;;;5.40;2.90;;;21.80;60.70;;;;;;5051768;28;20025;-77
2021/06/16 07:54:01;;;;;;;7.95;2.58;;;21.80;60.30;;;;;;5052999;28;20523;-77
2021/06/16 07:56:27;;;;;;;5.45;2.30;;;21.90;60.20;;;;;;5052861;28;20021;-78
2021/06/16 07:58:52;;;;;;;3.90;2.10;;;21.90;60.00;;;;;;5051487;28;20040;-78
2021/06/16 08:01:19;;;;;;;6.20;1.90;;;22.00;59.90;;;;;;5051040;28;20017;-78
2021/06/16 08:03:45;;;;;;;4.55;2.08;;;22.10;59.80;;;;;;5052527;28;20031;-77
2021/06/16 08:06:10;;;;;;;4.45;2.30;;;22.10;59.70;;;;;;5052304;28;20017;-77
2021/06/16 08:08:36;;;;;;;5.85;2.35;;;22.20;59.60;;;;;;5051101;28;20465;-77
2021/06/16 08:11:02;;;;;;;4.57;2.28;;;22.20;59.50;;;;;;5052320;28;20033;-77
2021/06/16 08:13:32;;;;;;;6.07;2.17;;;22.20;59.20;;;;;;5051220;28;20132;-76
2021/06/16 08:15:59;;;;;;;6.85;2.05;;;22.30;59.00;;;;;;5051117;28;20056;-78
2021/06/16 08:18:25;;;;;;;4.30;2.15;;;22.40;59.00;;;;;;5051744;28;20033;-77
2021/06/16 08:20:51;;;;;;;5.30;2.50;;;22.40;58.90;;;;;;5052487;28;20021;-77
2021/06/16 08:23:17;;;;;;;3.70;1.98;;;22.40;58.80;;;;;;5052027;28;20075;-76
2021/06/16 08:25:43;;;;;;;4.53;2.38;;;22.40;58.70;;;;;;5051106;28;20017;-77
2021/06/16 08:28:08;;;;;;;3.33;1.70;;;22.40;58.50;;;;;;5051782;28;20215;-77
2021/06/16 08:30:35;;;;;;;3.92;1.92;;;22.50;58.30;;;;;;5051178;28;20028;-77
2021/06/16 08:33:00;;;;;;;5.05;1.75;;;22.60;58.30;;;;;;5050962;28;20028;-78
2021/06/16 08:35:27;;;;;;;3.92;1.80;;;22.60;58.10;;;;;;5050134;28;20025;-78
2021/06/16 08:37:52;;;;;;;7.32;2.22;;;22.70;58.00;;;;;;5050694;28;20414;-78
2021/06/16 08:40:18;;;;;;;4.20;2.45;;;22.80;57.90;;;;;;5050124;28;20064;-76
2021/06/16 08:42:48;;;;;;;4.80;1.90;;;22.90;57.70;;;;;;5052011;28;20461;-77
2021/06/16 08:45:16;;;;;;;7.35;2.50;;;23.00;57.80;;;;;;5051439;28;20342;-77
2021/06/16 08:47:44;;;;;;;7.47;2.25;;;23.00;57.80;;;;;;5050834;28;20028;-77
2021/06/16 08:50:12;;;;;;;2.95;2.13;;;23.10;57.60;;;;;;5049743;28;20479;-78
2021/06/16 08:52:38;;;;;;;5.13;2.38;;;23.20;57.10;;;;;;5050545;28;20033;-78
2021/06/16 08:55:10;;;;;;;5.15;2.95;;;23.30;56.30;;;;;;5051926;28;20021;-78
2021/06/16 08:57:35;;;;;;;3.22;2.08;;;23.40;56.40;;;;;;5050381;28;20473;-79
2021/06/16 09:00:03;;;;;;;3.45;1.70;;;23.40;56.40;;;;;;5050463;28;20024;-77
2021/06/16 09:02:29;;;;;;;3.28;2.03;;;23.40;56.40;;;;;;5049830;28;20106;-77
2021/06/16 09:04:55;;;;;;;3.80;2.17;;;23.50;56.50;;;;;;5050616;28;20063;-76
2021/06/16 09:07:23;;;;;;;3.95;2.17;;;23.50;56.40;;;;;;5051946;28;20125;-78
2021/06/16 09:10:08;;;;;;;3.30;1.88;;;23.60;56.30;;;;;;5054270;28;20108;-78
2021/06/16 09:12:38;;;;;;;5.75;2.30;;;23.60;56.10;;;;;;5054849;28;20082;-77
2021/06/16 09:15:10;;;;;;;3.95;2.17;;;23.60;56.10;;;;;;5056010;28;20079;-78
2021/06/16 09:17:36;;;;;;;3.45;1.85;;;23.70;55.90;;;;;;5056217;28;20053;-77
2021/06/16 09:20:03;;;;;;;2.92;2.05;;;23.80;55.90;;;;;;5056195;28;20060;-78
2021/06/16 09:22:34;;;;;;;5.93;2.50;;;23.90;55.90;;;;;;5055288;28;20032;-78
2021/06/16 09:25:03;;;;;;;3.97;2.13;;;23.90;56.00;;;;;;5057696;28;20043;-78
2021/06/16 09:27:44;;;;;;;4.72;2.08;;;23.90;56.00;;;;;;5054618;28;20401;-77
2021/06/16 09:30:34;;;;;;;4.78;2.33;;;23.90;55.70;;;;;;5059406;28;20470;-77
2021/06/16 09:33:10;;;;;;;4.63;1.95;;;24.00;55.60;;;;;;5065224;28;20107;-77
2021/06/16 09:35:39;;;;;;;4.13;2.08;;;24.00;55.40;;;;;;5060809;28;20036;-77
2021/06/16 09:38:07;;;;;;;4.03;2.03;;;24.10;55.30;;;;;;5064594;28;20087;-77
2021/06/16 09:40:45;;;;;;;5.28;1.90;;;24.10;55.00;;;;;;5059055;28;20025;-77
2021/06/16 09:43:16;;;;;;;6.25;2.38;;;24.20;55.10;;;;;;5054806;28;20031;-78
2021/06/16 09:45:44;;;;;;;;;;;24.20;55.10;;;;;;5059167;28;20156;-79
2021/06/16 09:48:26;;;;;;;4.75;2.20;;;24.20;54.90;;;;;;5054370;28;19905;-79
2021/06/16 09:50:54;;;;;;;4.10;2.35;;;24.30;54.50;;;;;;5055697;28;20089;-77
2021/06/16 09:53:20;;;;;;;4.00;1.95;;;24.30;54.30;;;;;;5055403;28;20021;-77
2021/06/16 09:55:46;;;;;;;4.47;2.05;;;24.40;54.30;;;;;;5054162;28;20378;-76
2021/06/16 09:58:17;;;;;;;2.42;1.80;;;24.50;54.40;;;;;;5052916;28;20040;-79
2021/06/16 10:00:48;;;;;;;4.40;2.03;;;24.50;54.10;;;;;;5054958;28;20024;-77
2021/06/16 10:03:20;;;;;;;3.75;1.85;;;24.60;54.00;;;;;;5053103;28;20108;-78
2021/06/16 10:06:08;;;;;;;4.63;2.10;;;24.70;53.70;;;;;;5054940;28;20036;-77
2021/06/16 10:08:44;;;;;;;4.40;2.15;;;24.80;53.40;;;;;;5052972;28;20025;-78
2021/06/16 10:11:16;;;;;;;3.35;1.83;;;25.00;53.10;;;;;;5053586;28;20083;-78
2021/06/16 10:13:43;;;;;;;5.18;2.53;;;25.10;53.00;;;;;;5054473;28;20025;-77
2021/06/16 10:16:09;;;;;;;5.13;2.33;;;25.10;52.80;;;;;;5053378;28;20028;-79
2021/06/16 10:18:47;;;;;;;6.90;2.70;;;25.20;52.70;;;;;;5053121;28;20033;-78
2021/06/16 10:21:16;;;;;;;3.85;2.42;;;25.20;52.70;;;;;;5052635;28;20021;-77
2021/06/16 10:23:42;;;;;;;6.53;2.38;;;25.20;52.60;;;;;;5054720;28;20025;-77
2021/06/16 10:26:14;;;;;;;4.35;2.40;;;25.30;52.20;;;;;;5054764;28;20025;-78
2021/06/16 10:28:44;;;;;;;4.50;2.20;;;25.40;52.00;;;;;;5052805;28;20508;-78
2021/06/16 10:31:10;;;;;;;7.65;2.03;;;25.40;52.00;;;;;;5054089;28;20559;-78
2021/06/16 10:33:37;;;;;;;2.50;1.70;;;25.40;52.10;;;;;;5053783;28;20342;-77
2021/06/16 10:36:23;;;;;;;4.03;2.17;;;25.50;52.20;;;;;;5052793;28;20032;-78
2021/06/16 10:38:58;;;;;;;5.32;2.80;;;25.60;52.30;;;;;;5052642;28;20033;-77
2021/06/16 10:41:45;;;;;;;3.85;2.10;;;25.70;52.10;;;;;;5053686;28;20025;-77
2021/06/16 10:44:16;;;;;;;5.82;2.80;;;25.70;52.10;;;;;;5054186;28;20021;-77
2021/06/16 10:46:52;;;;;;;;;;;25.80;52.00;;;;;;5053000;28;20136;-76
2021/06/16 10:49:36;;;;;;;7.53;2.90;;;25.90;52.10;;;;;;5053794;28;19913;-76
2021/06/16 10:52:03;;;;;;;3.75;2.58;;;26.00;52.00;;;;;;5052615;28;20093;-78
2021/06/16 10:54:30;;;;;;;3.28;2.00;;;26.00;51.90;;;;;;5052033;28;20052;-78
2021/06/16 10:57:16;;;;;;;3.88;2.42;;;26.10;51.60;;;;;;5054052;28;20025;-78
2021/06/16 10:59:48;;;;;;;5.72;2.60;;;26.20;51.50;;;;;;5053257;28;20037;-78
2021/06/16 11:02:17;;;;;;;6.22;3.10;;;26.20;51.40;;;;;;5053927;28;20070;-77
2021/06/16 11:04:44;;;;;;;3.60;2.13;;;26.30;51.40;;;;;;5053558;28;20025;-78
2021/06/16 11:07:32;;;;;;;5.85;2.40;;;26.40;51.30;;;;;;5052449;28;20021;-77
2021/06/16 11:10:08;;;;;;;5.05;2.20;;;26.40;51.20;;;;;;5053693;28;20029;-77
2021/06/16 11:12:40;;;;;;;5.38;2.78;;;26.60;51.40;;;;;;5052757;28;20385;-78
2021/06/16 11:15:26;;;;;;;3.58;1.95;;;26.70;51.10;;;;;;5052234;28;20029;-77
2021/06/16 11:17:53;;;;;;;4.63;2.58;;;26.80;51.40;;;;;;5051279;28;20078;-78
2021/06/16 11:20:41;;;;;;;4.50;2.47;;;26.90;50.80;;;;;;5051575;28;20025;-77
2021/06/16 11:23:19;;;;;;;4.68;2.10;;;27.00;50.60;;;;;;5052332;28;20371;-76
2021/06/16 11:25:44;;;;;;;5.07;2.42;;;27.20;50.60;;;;;;5052651;28;20031;-77
2021/06/16 11:28:12;;;;;;;5.30;2.72;;;27.30;50.50;;;;;;5053467;28;20024;-78
2021/06/16 11:31:05;;;;;;;4.70;2.83;;;27.50;49.70;;;;;;5050697;28;20052;-77
2021/06/16 11:33:37;;;;;;;6.05;2.72;;;27.60;49.70;;;;;;5053126;28;20036;-77
2021/06/16 11:36:13;;;;;;;3.97;2.58;;;27.80;49.60;;;;;;5053418;28;20021;-76
2021/06/16 11:38:53;;;;;;;5.45;2.58;;;28.00;49.40;;;;;;5052651;28;20068;-78
2021/06/16 11:41:24;;;;;;;3.88;2.30;;;28.10;49.20;;;;;;5051338;28;20025;-79
2021/06/16 11:44:07;;;;;;;3.97;2.30;;;28.40;48.80;;;;;;5053253;28;20128;-78
2021/06/16 11:46:36;;;;;;;4.47;2.63;;;28.50;48.50;;;;;;5051170;28;20102;-78
2021/06/16 11:49:08;;;;;;;3.80;2.47;;;28.60;48.10;;;;;;5052135;28;20534;-77
2021/06/16 11:51:39;;;;;;;7.70;2.67;;;28.80;48.20;;;;;;5052559;28;20021;-78
2021/06/16 11:54:30;;;;;;;4.60;2.30;;;28.90;47.90;;;;;;5053455;28;20026;-78
2021/06/16 11:57:00;;;;;;;3.72;2.33;;;29.10;47.80;;;;;;5051736;28;20424;-77
2021/06/16 11:59:34;;;;;;;3.75;2.13;;;29.20;47.60;;;;;;5052486;28;20370;-77
2021/06/16 12:02:08;;;;;;;5.43;2.83;;;29.40;47.40;;;;;;5051569;28;20029;-76
2021/06/16 12:04:52;;;;;;;3.85;2.53;;;29.50;47.30;;;;;;5050756;28;20025;-77
2021/06/16 12:07:25;;;;;;;3.83;2.50;;;29.60;47.20;;;;;;5052679;28;20033;-76
2021/06/16 12:09:56;;;;;;;2.47;2.10;;;29.80;47.50;;;;;;5052723;28;20049;-76
2021/06/16 12:12:23;;;;;;;5.00;2.45;;;29.90;46.80;;;;;;5050806;28;20408;-77
2021/06/16 12:15:03;;;;;;;6.15;2.83;;;30.10;46.50;;;;;;5051371;28;20079;-77
2021/06/16 12:17:29;;;;;;;3.22;2.40;;;30.30;46.50;;;;;;5050692;28;20029;-78
2021/06/16 12:20:05;;;;;;;4.03;2.42;;;30.40;46.00;;;;;;5051323;28;20025;-77
2021/06/16 12:22:31;;;;;;;3.30;2.38;;;30.50;45.70;;;;;;5050730;28;20104;-76
2021/06/16 12:24:56;;;;;;;5.45;2.45;;;30.50;45.40;;;;;;5052126;28;20126;-78
2021/06/16 12:27:22;;;;;;;3.13;2.15;;;30.40;45.00;;;;;;5050471;28;20584;-79
2021/06/16 12:29:54;;;;;;;8.13;2.63;;;30.40;45.50;;;;;;5050947;28;20427;-77
2021/06/16 12:32:36;;;;;;;5.88;2.75;;;30.50;45.50;;;;;;5052546;28;20095;-78
2021/06/16 12:35:26;;;;;;;4.45;2.75;;;30.50;45.00;;;;;;5052168;28;20036;-76
2021/06/16 12:37:53;;;;;;;4.97;2.67;;;30.50;45.00;;;;;;5050930;28;20025;-78
2021/06/16 12:40:34;;;;;;;7.70;2.88;;;30.60;45.00;;;;;;5052022;28;20031;-77
2021/06/16 12:43:00;;;;;;;2.85;2.17;;;30.90;45.20;;;;;;5050078;28;20023;-78
2021/06/16 12:45:26;;;;;;;4.40;2.30;;;31.00;45.00;;;;;;5049843;28;20055;-79
2021/06/16 12:47:51;;;;;;;3.72;2.25;;;31.20;45.20;;;;;;5050706;28;20079;-78
2021/06/16 12:50:32;;;;;;;4.40;2.67;;;31.30;44.30;;;;;;5051255;28;20017;-78
2021/06/16 12:52:57;;;;;;;6.30;2.88;;;31.40;43.90;;;;;;5050878;28;20095;-77
2021/06/16 12:55:24;;;;;;;4.55;2.90;;;31.50;43.70;;;;;;5050874;28;20049;-78
2021/06/16 12:57:53;;;;;;;3.22;2.30;;;31.60;43.70;;;;;;5051706;28;20029;-78